sensor_id;sensor_type;location;lat;lon;timestamp;temperature;humidity
14517;DHT22;7344;50.864;4.362;2023-08-08T00:02:06;14.40;99.90
14517;DHT22;7344;50.864;4.362;2023-08-08T00:04:33;14.40;99.90
14517;DHT22;7344;50.864;4.362;2023-08-08T00:06:59;14.30;99.90
14517;DHT22;7344;50.864;4.362;2023-08-08T00:09:24;14.30;99.90
14517;DHT22;7344;50.864;4.362;2023-08-08T00:11:50;14.30;99.90
14517;DHT22;7344;50.864;4.362;2023-08-08T00:14:16;14.30;99.90
14517;DHT22;7344;50.864;4.362;2023-08-08T00:16:41;14.20;99.90
14517;DHT22;7344;50.864;4.362;2023-08-08T00:19:07;14.20;99.90
14517;DHT22;7344;50.864;4.362;2023-08-08T00:21:33;14.20;99.90
14517;DHT22;7344;50.864;4.362;2023-08-08T00:23:58;14.20;99.90
14517;DHT22;7344;50.864;4.362;2023-08-08T00:26:24;14.20;99.90
14517;DHT22;7344;50.864;4.362;2023-08-08T00:28:49;14.20;99.90
14517;DHT22;7344;50.864;4.362;2023-08-08T00:31:15;14.10;99.90
14517;DHT22;7344;50.864;4.362;2023-08-08T00:33:43;14.20;99.90
14517;DHT22;7344;50.864;4.362;2023-08-08T00:36:08;14.10;99.90
14517;DHT22;7344;50.864;4.362;2023-08-08T00:38:34;14.10;99.90
14517;DHT22;7344;50.864;4.362;2023-08-08T00:40:59;14.10;99.90
14517;DHT22;7344;50.864;4.362;2023-08-08T00:43:25;14.00;99.90
14517;DHT22;7344;50.864;4.362;2023-08-08T00:45:51;14.00;99.90
14517;DHT22;7344;50.864;4.362;2023-08-08T00:48:17;14.00;99.90
14517;DHT22;7344;50.864;4.362;2023-08-08T00:50:45;13.90;99.90
14517;DHT22;7344;50.864;4.362;2023-08-08T00:53:11;14.00;99.90
14517;DHT22;7344;50.864;4.362;2023-08-08T00:55:37;13.90;99.90
14517;DHT22;7344;50.864;4.362;2023-08-08T00:58:04;13.90;99.90
14517;DHT22;7344;50.864;4.362;2023-08-08T01:00:29;13.90;99.90
14517;DHT22;7344;50.864;4.362;2023-08-08T01:02:55;13.90;99.90
14517;DHT22;7344;50.864;4.362;2023-08-08T01:05:21;13.90;99.90
14517;DHT22;7344;50.864;4.362;2023-08-08T01:10:32;13.80;99.90
14517;DHT22;7344;50.864;4.362;2023-08-08T01:13:09;13.80;99.90
14517;DHT22;7344;50.864;4.362;2023-08-08T01:15:36;13.80;99.90
14517;DHT22;7344;50.864;4.362;2023-08-08T01:18:08;13.70;99.90
14517;DHT22;7344;50.864;4.362;2023-08-08T01:20:34;13.70;99.90
14517;DHT22;7344;50.864;4.362;2023-08-08T01:25:41;13.80;99.90
14517;DHT22;7344;50.864;4.362;2023-08-08T01:28:07;13.70;99.90
14517;DHT22;7344;50.864;4.362;2023-08-08T01:30:33;13.70;99.90
14517;DHT22;7344;50.864;4.362;2023-08-08T01:32:59;13.70;99.90
14517;DHT22;7344;50.864;4.362;2023-08-08T01:35:28;13.70;99.90
14517;DHT22;7344;50.864;4.362;2023-08-08T01:38:04;13.70;99.90
14517;DHT22;7344;50.864;4.362;2023-08-08T01:40:31;13.70;99.90
14517;DHT22;7344;50.864;4.362;2023-08-08T01:42:58;13.60;99.90
14517;DHT22;7344;50.864;4.362;2023-08-08T01:45:24;13.60;99.90
14517;DHT22;7344;50.864;4.362;2023-08-08T01:47:51;13.70;99.90
14517;DHT22;7344;50.864;4.362;2023-08-08T01:50:17;13.60;99.90
14517;DHT22;7344;50.864;4.362;2023-08-08T01:52:43;13.60;99.90
14517;DHT22;7344;50.864;4.362;2023-08-08T01:55:09;13.60;99.90
14517;DHT22;7344;50.864;4.362;2023-08-08T01:57:34;13.70;99.90
14517;DHT22;7344;50.864;4.362;2023-08-08T02:00:00;13.60;99.90
14517;DHT22;7344;50.864;4.362;2023-08-08T02:02:26;13.70;99.90
14517;DHT22;7344;50.864;4.362;2023-08-08T02:04:52;13.70;99.90
14517;DHT22;7344;50.864;4.362;2023-08-08T02:07:18;13.80;99.90
14517;DHT22;7344;50.864;4.362;2023-08-08T02:09:43;13.80;99.90
14517;DHT22;7344;50.864;4.362;2023-08-08T02:12:11;13.80;99.90
14517;DHT22;7344;50.864;4.362;2023-08-08T02:14:37;13.70;99.90
14517;DHT22;7344;50.864;4.362;2023-08-08T02:17:03;13.70;99.90
14517;DHT22;7344;50.864;4.362;2023-08-08T02:19:28;13.60;99.90
14517;DHT22;7344;50.864;4.362;2023-08-08T02:21:54;13.60;99.90
14517;DHT22;7344;50.864;4.362;2023-08-08T02:24:20;13.60;99.90
14517;DHT22;7344;50.864;4.362;2023-08-08T02:26:46;13.60;99.90
14517;DHT22;7344;50.864;4.362;2023-08-08T02:29:11;13.60;99.90
14517;DHT22;7344;50.864;4.362;2023-08-08T02:31:37;13.60;99.90
14517;DHT22;7344;50.864;4.362;2023-08-08T02:34:02;13.50;99.90
14517;DHT22;7344;50.864;4.362;2023-08-08T02:36:28;13.50;99.90
14517;DHT22;7344;50.864;4.362;2023-08-08T02:38:54;13.50;99.90
14517;DHT22;7344;50.864;4.362;2023-08-08T02:41:19;13.50;99.90
14517;DHT22;7344;50.864;4.362;2023-08-08T02:43:46;13.50;99.90
14517;DHT22;7344;50.864;4.362;2023-08-08T02:46:11;13.40;99.90
14517;DHT22;7344;50.864;4.362;2023-08-08T02:48:37;13.40;99.90
14517;DHT22;7344;50.864;4.362;2023-08-08T02:51:03;13.40;99.90
14517;DHT22;7344;50.864;4.362;2023-08-08T02:53:28;13.40;99.90
14517;DHT22;7344;50.864;4.362;2023-08-08T02:55:54;13.30;99.90
14517;DHT22;7344;50.864;4.362;2023-08-08T02:58:19;13.30;99.90
14517;DHT22;7344;50.864;4.362;2023-08-08T03:00:45;13.30;99.90
14517;DHT22;7344;50.864;4.362;2023-08-08T03:03:11;13.30;99.90
14517;DHT22;7344;50.864;4.362;2023-08-08T03:05:36;13.30;99.90
14517;DHT22;7344;50.864;4.362;2023-08-08T03:08:02;13.30;99.90
14517;DHT22;7344;50.864;4.362;2023-08-08T03:10:27;13.30;99.90
14517;DHT22;7344;50.864;4.362;2023-08-08T03:12:53;13.30;99.90
14517;DHT22;7344;50.864;4.362;2023-08-08T03:15:18;13.30;99.90
14517;DHT22;7344;50.864;4.362;2023-08-08T03:17:44;13.30;99.90
14517;DHT22;7344;50.864;4.362;2023-08-08T03:20:10;13.20;99.90
14517;DHT22;7344;50.864;4.362;2023-08-08T03:22:36;13.20;99.90
14517;DHT22;7344;50.864;4.362;2023-08-08T03:25:02;13.10;99.90
14517;DHT22;7344;50.864;4.362;2023-08-08T03:27:30;13.10;99.90
14517;DHT22;7344;50.864;4.362;2023-08-08T03:29:55;13.20;99.90
14517;DHT22;7344;50.864;4.362;2023-08-08T03:32:22;13.20;99.90
14517;DHT22;7344;50.864;4.362;2023-08-08T03:34:48;13.10;99.90
14517;DHT22;7344;50.864;4.362;2023-08-08T03:37:13;13.10;99.90
14517;DHT22;7344;50.864;4.362;2023-08-08T03:39:39;13.10;99.90
14517;DHT22;7344;50.864;4.362;2023-08-08T03:42:05;13.10;99.90
14517;DHT22;7344;50.864;4.362;2023-08-08T03:44:30;13.10;99.90
14517;DHT22;7344;50.864;4.362;2023-08-08T03:46:56;13.10;99.90
14517;DHT22;7344;50.864;4.362;2023-08-08T03:49:22;13.10;99.90
14517;DHT22;7344;50.864;4.362;2023-08-08T03:51:47;13.00;99.90
14517;DHT22;7344;50.864;4.362;2023-08-08T03:54:14;13.00;99.90
14517;DHT22;7344;50.864;4.362;2023-08-08T03:56:40;13.00;99.90
14517;DHT22;7344;50.864;4.362;2023-08-08T03:59:06;13.00;99.90
14517;DHT22;7344;50.864;4.362;2023-08-08T04:01:32;13.00;99.90
14517;DHT22;7344;50.864;4.362;2023-08-08T04:03:58;13.00;99.90
14517;DHT22;7344;50.864;4.362;2023-08-08T04:06:23;12.90;99.90
14517;DHT22;7344;50.864;4.362;2023-08-08T04:08:49;12.90;99.90
14517;DHT22;7344;50.864;4.362;2023-08-08T04:11:15;13.00;99.90
14517;DHT22;7344;50.864;4.362;2023-08-08T04:13:40;12.90;99.90
14517;DHT22;7344;50.864;4.362;2023-08-08T04:16:06;13.00;99.90
14517;DHT22;7344;50.864;4.362;2023-08-08T04:18:31;12.90;99.90
14517;DHT22;7344;50.864;4.362;2023-08-08T04:20:57;12.90;99.90
14517;DHT22;7344;50.864;4.362;2023-08-08T04:23:23;13.00;99.90
14517;DHT22;7344;50.864;4.362;2023-08-08T04:25:53;12.90;99.90
14517;DHT22;7344;50.864;4.362;2023-08-08T04:28:19;12.90;99.90
14517;DHT22;7344;50.864;4.362;2023-08-08T04:30:45;13.00;99.90
14517;DHT22;7344;50.864;4.362;2023-08-08T04:33:10;12.90;99.90
14517;DHT22;7344;50.864;4.362;2023-08-08T04:35:36;13.00;99.90
14517;DHT22;7344;50.864;4.362;2023-08-08T04:38:02;13.10;99.90
14517;DHT22;7344;50.864;4.362;2023-08-08T04:40:27;13.20;99.90
14517;DHT22;7344;50.864;4.362;2023-08-08T04:42:53;13.40;99.90
14517;DHT22;7344;50.864;4.362;2023-08-08T04:45:19;13.50;99.90
14517;DHT22;7344;50.864;4.362;2023-08-08T04:47:46;13.70;99.90
14517;DHT22;7344;50.864;4.362;2023-08-08T04:50:12;13.90;99.90
14517;DHT22;7344;50.864;4.362;2023-08-08T04:52:37;14.00;99.90
14517;DHT22;7344;50.864;4.362;2023-08-08T04:55:04;14.10;99.90
14517;DHT22;7344;50.864;4.362;2023-08-08T04:57:30;14.30;99.90
14517;DHT22;7344;50.864;4.362;2023-08-08T04:59:56;14.50;99.90
14517;DHT22;7344;50.864;4.362;2023-08-08T05:02:22;14.80;99.90
14517;DHT22;7344;50.864;4.362;2023-08-08T05:04:48;15.20;99.90
14517;DHT22;7344;50.864;4.362;2023-08-08T05:07:13;15.40;99.90
14517;DHT22;7344;50.864;4.362;2023-08-08T05:09:39;15.80;99.90
14517;DHT22;7344;50.864;4.362;2023-08-08T05:12:06;16.10;99.90
14517;DHT22;7344;50.864;4.362;2023-08-08T05:14:31;16.50;99.90
14517;DHT22;7344;50.864;4.362;2023-08-08T05:16:57;16.70;99.90
14517;DHT22;7344;50.864;4.362;2023-08-08T05:19:22;17.20;99.90
14517;DHT22;7344;50.864;4.362;2023-08-08T05:21:49;17.40;99.90
14517;DHT22;7344;50.864;4.362;2023-08-08T05:24:15;17.50;99.90
14517;DHT22;7344;50.864;4.362;2023-08-08T05:26:41;17.50;99.90
14517;DHT22;7344;50.864;4.362;2023-08-08T05:29:06;17.50;99.90
14517;DHT22;7344;50.864;4.362;2023-08-08T05:31:32;17.70;99.90
14517;DHT22;7344;50.864;4.362;2023-08-08T05:33:57;18.20;99.90
14517;DHT22;7344;50.864;4.362;2023-08-08T05:36:23;18.60;99.90
14517;DHT22;7344;50.864;4.362;2023-08-08T05:38:49;18.90;99.90
14517;DHT22;7344;50.864;4.362;2023-08-08T05:41:14;19.70;99.90
14517;DHT22;7344;50.864;4.362;2023-08-08T05:43:40;19.80;99.90
14517;DHT22;7344;50.864;4.362;2023-08-08T05:46:05;20.00;99.90
14517;DHT22;7344;50.864;4.362;2023-08-08T05:48:31;20.60;99.90
14517;DHT22;7344;50.864;4.362;2023-08-08T05:50:57;21.10;99.90
14517;DHT22;7344;50.864;4.362;2023-08-08T05:53:24;20.50;1.00
14517;DHT22;7344;50.864;4.362;2023-08-08T05:55:50;20.30;1.00
14517;DHT22;7344;50.864;4.362;2023-08-08T05:58:15;19.80;1.00
14517;DHT22;7344;50.864;4.362;2023-08-08T06:00:41;19.30;5.30
14517;DHT22;7344;50.864;4.362;2023-08-08T06:03:08;18.60;19.80
14517;DHT22;7344;50.864;4.362;2023-08-08T06:05:34;18.20;35.30
14517;DHT22;7344;50.864;4.362;2023-08-08T06:07:59;17.90;42.50
14517;DHT22;7344;50.864;4.362;2023-08-08T06:10:25;17.80;44.60
14517;DHT22;7344;50.864;4.362;2023-08-08T06:12:50;17.90;51.30
14517;DHT22;7344;50.864;4.362;2023-08-08T06:15:16;19.10;34.10
14517;DHT22;7344;50.864;4.362;2023-08-08T06:17:42;20.40;6.10
14517;DHT22;7344;50.864;4.362;2023-08-08T06:20:07;21.20;1.00
14517;DHT22;7344;50.864;4.362;2023-08-08T06:22:34;22.20;1.00
14517;DHT22;7344;50.864;4.362;2023-08-08T06:25:00;23.70;1.00
14517;DHT22;7344;50.864;4.362;2023-08-08T06:27:26;24.70;1.00
14517;DHT22;7344;50.864;4.362;2023-08-08T06:29:51;25.40;99.90
14517;DHT22;7344;50.864;4.362;2023-08-08T06:32:17;24.80;1.00
14517;DHT22;7344;50.864;4.362;2023-08-08T06:34:43;24.90;1.00
14517;DHT22;7344;50.864;4.362;2023-08-08T06:37:08;24.10;1.00
14517;DHT22;7344;50.864;4.362;2023-08-08T06:39:34;23.50;1.00
14517;DHT22;7344;50.864;4.362;2023-08-08T06:42:00;23.30;1.00
14517;DHT22;7344;50.864;4.362;2023-08-08T06:44:26;23.40;1.00
14517;DHT22;7344;50.864;4.362;2023-08-08T06:46:51;23.00;1.00
14517;DHT22;7344;50.864;4.362;2023-08-08T06:49:17;22.80;1.00
14517;DHT22;7344;50.864;4.362;2023-08-08T06:51:42;22.50;1.00
14517;DHT22;7344;50.864;4.362;2023-08-08T06:54:08;22.30;1.00
14517;DHT22;7344;50.864;4.362;2023-08-08T06:56:33;21.60;1.00
14517;DHT22;7344;50.864;4.362;2023-08-08T06:58:59;21.20;1.00
14517;DHT22;7344;50.864;4.362;2023-08-08T07:01:25;21.50;1.00
14517;DHT22;7344;50.864;4.362;2023-08-08T07:03:50;21.60;1.00
14517;DHT22;7344;50.864;4.362;2023-08-08T07:06:19;21.40;1.00
14517;DHT22;7344;50.864;4.362;2023-08-08T07:08:45;21.40;1.00
14517;DHT22;7344;50.864;4.362;2023-08-08T07:11:10;21.30;1.00
14517;DHT22;7344;50.864;4.362;2023-08-08T07:13:36;20.90;1.00
14517;DHT22;7344;50.864;4.362;2023-08-08T07:16:02;20.90;1.00
14517;DHT22;7344;50.864;4.362;2023-08-08T07:18:27;21.00;1.00
14517;DHT22;7344;50.864;4.362;2023-08-08T07:20:53;20.50;1.00
14517;DHT22;7344;50.864;4.362;2023-08-08T07:23:19;20.30;1.00
14517;DHT22;7344;50.864;4.362;2023-08-08T07:25:47;20.20;1.00
14517;DHT22;7344;50.864;4.362;2023-08-08T07:28:13;20.00;2.50
14517;DHT22;7344;50.864;4.362;2023-08-08T07:30:40;19.90;2.20
14517;DHT22;7344;50.864;4.362;2023-08-08T07:33:06;19.80;11.20
14517;DHT22;7344;50.864;4.362;2023-08-08T07:35:35;19.60;13.20
14517;DHT22;7344;50.864;4.362;2023-08-08T07:38:00;19.80;10.40
14517;DHT22;7344;50.864;4.362;2023-08-08T07:40:28;19.90;10.40
14517;DHT22;7344;50.864;4.362;2023-08-08T07:42:53;20.10;8.80
14517;DHT22;7344;50.864;4.362;2023-08-08T07:45:19;20.00;4.50
14517;DHT22;7344;50.864;4.362;2023-08-08T07:47:45;20.00;6.50
14517;DHT22;7344;50.864;4.362;2023-08-08T07:50:11;20.00;1.00
14517;DHT22;7344;50.864;4.362;2023-08-08T07:52:37;19.60;10.50
14517;DHT22;7344;50.864;4.362;2023-08-08T07:55:04;19.60;14.60
14517;DHT22;7344;50.864;4.362;2023-08-08T07:57:30;20.00;10.40
14517;DHT22;7344;50.864;4.362;2023-08-08T07:59:57;19.70;11.40
14517;DHT22;7344;50.864;4.362;2023-08-08T08:02:22;19.40;19.30
14517;DHT22;7344;50.864;4.362;2023-08-08T08:04:48;19.60;13.80
14517;DHT22;7344;50.864;4.362;2023-08-08T08:07:14;19.60;16.10
14517;DHT22;7344;50.864;4.362;2023-08-08T08:09:39;19.70;11.80
14517;DHT22;7344;50.864;4.362;2023-08-08T08:12:08;19.60;12.40
14517;DHT22;7344;50.864;4.362;2023-08-08T08:14:34;19.60;14.30
14517;DHT22;7344;50.864;4.362;2023-08-08T08:16:59;19.30;23.20
14517;DHT22;7344;50.864;4.362;2023-08-08T08:19:25;19.40;21.00
14517;DHT22;7344;50.864;4.362;2023-08-08T08:21:51;19.30;21.20
14517;DHT22;7344;50.864;4.362;2023-08-08T08:24:16;19.30;19.70
14517;DHT22;7344;50.864;4.362;2023-08-08T08:26:42;19.30;25.40
14517;DHT22;7344;50.864;4.362;2023-08-08T08:29:07;19.40;21.40
14517;DHT22;7344;50.864;4.362;2023-08-08T08:31:33;19.30;22.90
14517;DHT22;7344;50.864;4.362;2023-08-08T08:33:59;19.30;23.20
14517;DHT22;7344;50.864;4.362;2023-08-08T08:36:24;19.50;20.30
14517;DHT22;7344;50.864;4.362;2023-08-08T08:38:51;19.60;12.40
14517;DHT22;7344;50.864;4.362;2023-08-08T08:41:18;19.70;12.00
14517;DHT22;7344;50.864;4.362;2023-08-08T08:43:45;19.60;17.20
14517;DHT22;7344;50.864;4.362;2023-08-08T08:46:11;19.50;13.70
14517;DHT22;7344;50.864;4.362;2023-08-08T08:48:40;19.50;18.80
14517;DHT22;7344;50.864;4.362;2023-08-08T08:51:06;19.90;14.20
14517;DHT22;7344;50.864;4.362;2023-08-08T08:53:32;20.20;5.70
14517;DHT22;7344;50.864;4.362;2023-08-08T08:56:01;20.70;1.00
14517;DHT22;7344;50.864;4.362;2023-08-08T08:58:27;20.80;1.00
14517;DHT22;7344;50.864;4.362;2023-08-08T09:00:54;21.10;1.00
14517;DHT22;7344;50.864;4.362;2023-08-08T09:03:19;21.10;1.00
14517;DHT22;7344;50.864;4.362;2023-08-08T09:05:45;21.40;1.00
14517;DHT22;7344;50.864;4.362;2023-08-08T09:08:13;21.10;1.00
14517;DHT22;7344;50.864;4.362;2023-08-08T09:10:41;21.10;1.00
14517;DHT22;7344;50.864;4.362;2023-08-08T09:13:06;21.70;1.00
14517;DHT22;7344;50.864;4.362;2023-08-08T09:15:33;22.50;1.00
14517;DHT22;7344;50.864;4.362;2023-08-08T09:18:00;23.10;1.00
14517;DHT22;7344;50.864;4.362;2023-08-08T09:20:26;22.70;1.00
14517;DHT22;7344;50.864;4.362;2023-08-08T09:22:55;22.90;1.00
14517;DHT22;7344;50.864;4.362;2023-08-08T09:25:21;23.10;1.00
14517;DHT22;7344;50.864;4.362;2023-08-08T09:27:47;23.00;1.00
14517;DHT22;7344;50.864;4.362;2023-08-08T09:30:13;23.10;1.00
14517;DHT22;7344;50.864;4.362;2023-08-08T09:32:40;22.70;1.00
14517;DHT22;7344;50.864;4.362;2023-08-08T09:35:06;23.30;1.00
14517;DHT22;7344;50.864;4.362;2023-08-08T09:37:35;23.50;1.00
14517;DHT22;7344;50.864;4.362;2023-08-08T09:40:02;24.40;1.00
14517;DHT22;7344;50.864;4.362;2023-08-08T09:42:34;24.50;1.00
14517;DHT22;7344;50.864;4.362;2023-08-08T09:45:00;24.70;1.00
14517;DHT22;7344;50.864;4.362;2023-08-08T09:47:27;24.70;1.00
14517;DHT22;7344;50.864;4.362;2023-08-08T09:50:03;23.80;1.00
14517;DHT22;7344;50.864;4.362;2023-08-08T09:52:33;23.90;1.00
14517;DHT22;7344;50.864;4.362;2023-08-08T09:55:00;23.50;1.00
14517;DHT22;7344;50.864;4.362;2023-08-08T09:57:26;22.70;1.00
14517;DHT22;7344;50.864;4.362;2023-08-08T09:59:52;22.80;1.00
14517;DHT22;7344;50.864;4.362;2023-08-08T10:02:18;23.00;1.00
14517;DHT22;7344;50.864;4.362;2023-08-08T10:04:45;22.70;1.00
14517;DHT22;7344;50.864;4.362;2023-08-08T10:07:11;22.00;1.00
14517;DHT22;7344;50.864;4.362;2023-08-08T10:09:38;21.80;1.00
14517;DHT22;7344;50.864;4.362;2023-08-08T10:12:07;21.70;1.00
14517;DHT22;7344;50.864;4.362;2023-08-08T10:14:36;21.30;1.00
14517;DHT22;7344;50.864;4.362;2023-08-08T10:17:04;21.10;1.00
14517;DHT22;7344;50.864;4.362;2023-08-08T10:19:29;20.90;1.00
14517;DHT22;7344;50.864;4.362;2023-08-08T10:22:00;21.10;1.00
14517;DHT22;7344;50.864;4.362;2023-08-08T10:24:34;21.30;1.00
14517;DHT22;7344;50.864;4.362;2023-08-08T10:27:01;21.00;1.00
14517;DHT22;7344;50.864;4.362;2023-08-08T10:29:29;20.90;1.00
14517;DHT22;7344;50.864;4.362;2023-08-08T10:32:03;20.80;1.00
14517;DHT22;7344;50.864;4.362;2023-08-08T10:34:42;20.80;1.00
14517;DHT22;7344;50.864;4.362;2023-08-08T10:37:16;20.60;1.00
14517;DHT22;7344;50.864;4.362;2023-08-08T10:39:58;20.70;1.00
14517;DHT22;7344;50.864;4.362;2023-08-08T10:42:27;21.00;1.00
14517;DHT22;7344;50.864;4.362;2023-08-08T10:44:58;21.00;1.00
14517;DHT22;7344;50.864;4.362;2023-08-08T10:50:11;20.50;1.00
14517;DHT22;7344;50.864;4.362;2023-08-08T10:52:50;20.30;1.00
14517;DHT22;7344;50.864;4.362;2023-08-08T10:55:26;20.00;1.00
14517;DHT22;7344;50.864;4.362;2023-08-08T10:58:04;19.90;1.00
14517;DHT22;7344;50.864;4.362;2023-08-08T11:00:33;19.70;1.00
14517;DHT22;7344;50.864;4.362;2023-08-08T11:03:00;19.70;1.00
14517;DHT22;7344;50.864;4.362;2023-08-08T11:05:29;19.60;1.00
14517;DHT22;7344;50.864;4.362;2023-08-08T11:07:56;19.80;1.00
14517;DHT22;7344;50.864;4.362;2023-08-08T11:10:22;19.80;1.00
14517;DHT22;7344;50.864;4.362;2023-08-08T11:13:03;20.00;1.00
14517;DHT22;7344;50.864;4.362;2023-08-08T11:15:29;20.70;1.00
14517;DHT22;7344;50.864;4.362;2023-08-08T11:17:56;21.40;1.00
14517;DHT22;7344;50.864;4.362;2023-08-08T11:20:23;21.90;1.00
14517;DHT22;7344;50.864;4.362;2023-08-08T11:22:55;22.20;1.00
14517;DHT22;7344;50.864;4.362;2023-08-08T11:25:22;22.80;1.00
14517;DHT22;7344;50.864;4.362;2023-08-08T11:27:51;22.30;1.00
14517;DHT22;7344;50.864;4.362;2023-08-08T11:30:18;22.60;1.00
14517;DHT22;7344;50.864;4.362;2023-08-08T11:32:46;22.80;1.00
14517;DHT22;7344;50.864;4.362;2023-08-08T11:35:13;22.60;1.00
14517;DHT22;7344;50.864;4.362;2023-08-08T11:37:41;22.20;99.90
14517;DHT22;7344;50.864;4.362;2023-08-08T11:40:07;22.10;99.90
14517;DHT22;7344;50.864;4.362;2023-08-08T11:42:34;22.10;99.90
14517;DHT22;7344;50.864;4.362;2023-08-08T11:45:00;21.60;99.90
14517;DHT22;7344;50.864;4.362;2023-08-08T11:47:25;21.70;1.00
14517;DHT22;7344;50.864;4.362;2023-08-08T11:49:51;21.70;1.00
14517;DHT22;7344;50.864;4.362;2023-08-08T11:52:19;21.90;99.90
14517;DHT22;7344;50.864;4.362;2023-08-08T11:54:50;21.70;1.00
14517;DHT22;7344;50.864;4.362;2023-08-08T11:57:16;21.70;1.00
14517;DHT22;7344;50.864;4.362;2023-08-08T11:59:41;22.00;1.00
14517;DHT22;7344;50.864;4.362;2023-08-08T12:02:07;22.50;99.90
14517;DHT22;7344;50.864;4.362;2023-08-08T12:04:35;22.80;99.90
14517;DHT22;7344;50.864;4.362;2023-08-08T12:07:01;22.50;1.00
14517;DHT22;7344;50.864;4.362;2023-08-08T12:09:32;22.60;1.00
14517;DHT22;7344;50.864;4.362;2023-08-08T12:12:01;22.60;99.90
14517;DHT22;7344;50.864;4.362;2023-08-08T12:14:27;22.50;1.00
14517;DHT22;7344;50.864;4.362;2023-08-08T12:16:54;22.40;1.00
14517;DHT22;7344;50.864;4.362;2023-08-08T12:19:23;22.30;1.00
14517;DHT22;7344;50.864;4.362;2023-08-08T12:21:50;22.40;1.00
14517;DHT22;7344;50.864;4.362;2023-08-08T12:24:19;22.70;1.00
14517;DHT22;7344;50.864;4.362;2023-08-08T12:26:45;22.90;99.90
14517;DHT22;7344;50.864;4.362;2023-08-08T12:29:11;22.90;99.90
14517;DHT22;7344;50.864;4.362;2023-08-08T12:31:37;22.70;99.90
14517;DHT22;7344;50.864;4.362;2023-08-08T12:34:03;22.80;99.90
14517;DHT22;7344;50.864;4.362;2023-08-08T12:36:30;22.70;99.90
14517;DHT22;7344;50.864;4.362;2023-08-08T12:38:56;22.60;1.00
14517;DHT22;7344;50.864;4.362;2023-08-08T12:41:23;22.90;99.90
14517;DHT22;7344;50.864;4.362;2023-08-08T12:43:50;22.80;99.90
14517;DHT22;7344;50.864;4.362;2023-08-08T12:46:16;22.60;99.90
14517;DHT22;7344;50.864;4.362;2023-08-08T12:48:42;23.00;1.00
14517;DHT22;7344;50.864;4.362;2023-08-08T12:51:08;22.80;99.90
14517;DHT22;7344;50.864;4.362;2023-08-08T12:53:34;22.70;99.90
14517;DHT22;7344;50.864;4.362;2023-08-08T12:56:00;22.50;1.00
14517;DHT22;7344;50.864;4.362;2023-08-08T12:58:26;22.50;1.00
14517;DHT22;7344;50.864;4.362;2023-08-08T13:00:51;22.40;1.00
14517;DHT22;7344;50.864;4.362;2023-08-08T13:03:17;22.10;1.00
14517;DHT22;7344;50.864;4.362;2023-08-08T13:05:43;22.00;1.00
14517;DHT22;7344;50.864;4.362;2023-08-08T13:08:09;22.10;1.00
14517;DHT22;7344;50.864;4.362;2023-08-08T13:10:35;21.90;1.00
14517;DHT22;7344;50.864;4.362;2023-08-08T13:13:01;22.20;1.00
14517;DHT22;7344;50.864;4.362;2023-08-08T13:15:27;22.40;1.00
14517;DHT22;7344;50.864;4.362;2023-08-08T13:17:52;22.00;1.00
14517;DHT22;7344;50.864;4.362;2023-08-08T13:20:18;22.00;1.00
14517;DHT22;7344;50.864;4.362;2023-08-08T13:22:43;22.00;1.00
14517;DHT22;7344;50.864;4.362;2023-08-08T13:25:09;22.10;1.00
14517;DHT22;7344;50.864;4.362;2023-08-08T13:27:35;22.00;1.00
14517;DHT22;7344;50.864;4.362;2023-08-08T13:30:01;21.90;1.00
14517;DHT22;7344;50.864;4.362;2023-08-08T13:32:27;21.50;1.00
14517;DHT22;7344;50.864;4.362;2023-08-08T13:34:53;21.30;1.00
14517;DHT22;7344;50.864;4.362;2023-08-08T13:37:19;21.30;1.00
14517;DHT22;7344;50.864;4.362;2023-08-08T13:39:44;21.40;1.00
14517;DHT22;7344;50.864;4.362;2023-08-08T13:42:10;21.60;1.00
14517;DHT22;7344;50.864;4.362;2023-08-08T13:44:36;21.80;1.00
14517;DHT22;7344;50.864;4.362;2023-08-08T13:47:01;21.90;1.00
14517;DHT22;7344;50.864;4.362;2023-08-08T13:49:27;22.10;1.00
14517;DHT22;7344;50.864;4.362;2023-08-08T13:51:53;21.90;1.00
14517;DHT22;7344;50.864;4.362;2023-08-08T13:54:20;22.00;1.00
14517;DHT22;7344;50.864;4.362;2023-08-08T13:56:46;22.20;1.00
14517;DHT22;7344;50.864;4.362;2023-08-08T13:59:11;22.20;1.00
14517;DHT22;7344;50.864;4.362;2023-08-08T14:01:37;22.20;1.00
14517;DHT22;7344;50.864;4.362;2023-08-08T14:04:03;22.50;1.00
14517;DHT22;7344;50.864;4.362;2023-08-08T14:06:29;22.60;1.00
14517;DHT22;7344;50.864;4.362;2023-08-08T14:08:56;22.50;1.00
14517;DHT22;7344;50.864;4.362;2023-08-08T14:11:21;22.20;1.00
14517;DHT22;7344;50.864;4.362;2023-08-08T14:13:47;22.00;1.00
14517;DHT22;7344;50.864;4.362;2023-08-08T14:16:13;21.70;1.00
14517;DHT22;7344;50.864;4.362;2023-08-08T14:18:38;21.50;1.00
14517;DHT22;7344;50.864;4.362;2023-08-08T14:21:04;21.20;1.00
14517;DHT22;7344;50.864;4.362;2023-08-08T14:23:31;21.00;1.00
14517;DHT22;7344;50.864;4.362;2023-08-08T14:25:56;20.80;1.00
14517;DHT22;7344;50.864;4.362;2023-08-08T14:28:22;20.90;1.00
14517;DHT22;7344;50.864;4.362;2023-08-08T14:30:48;21.00;1.00
14517;DHT22;7344;50.864;4.362;2023-08-08T14:33:15;21.00;1.00
14517;DHT22;7344;50.864;4.362;2023-08-08T14:35:41;20.90;1.00
14517;DHT22;7344;50.864;4.362;2023-08-08T14:38:07;20.70;1.00
14517;DHT22;7344;50.864;4.362;2023-08-08T14:40:32;20.50;1.00
14517;DHT22;7344;50.864;4.362;2023-08-08T14:43:00;20.50;1.00
14517;DHT22;7344;50.864;4.362;2023-08-08T14:45:26;20.50;1.00
14517;DHT22;7344;50.864;4.362;2023-08-08T14:47:52;20.20;1.00
14517;DHT22;7344;50.864;4.362;2023-08-08T14:50:17;20.10;1.00
14517;DHT22;7344;50.864;4.362;2023-08-08T14:52:43;20.10;1.00
14517;DHT22;7344;50.864;4.362;2023-08-08T14:55:09;20.20;1.00
14517;DHT22;7344;50.864;4.362;2023-08-08T14:57:34;20.20;1.00
14517;DHT22;7344;50.864;4.362;2023-08-08T15:00:00;20.40;1.00
14517;DHT22;7344;50.864;4.362;2023-08-08T15:02:26;20.50;1.00
14517;DHT22;7344;50.864;4.362;2023-08-08T15:04:52;20.60;1.00
14517;DHT22;7344;50.864;4.362;2023-08-08T15:07:18;20.70;1.00
14517;DHT22;7344;50.864;4.362;2023-08-08T15:09:44;20.80;1.00
14517;DHT22;7344;50.864;4.362;2023-08-08T15:12:10;20.70;1.00
14517;DHT22;7344;50.864;4.362;2023-08-08T15:14:35;20.50;1.00
14517;DHT22;7344;50.864;4.362;2023-08-08T15:17:01;20.50;1.00
14517;DHT22;7344;50.864;4.362;2023-08-08T15:19:27;20.50;1.00
14517;DHT22;7344;50.864;4.362;2023-08-08T15:21:53;20.30;1.00
14517;DHT22;7344;50.864;4.362;2023-08-08T15:24:19;20.40;1.00
14517;DHT22;7344;50.864;4.362;2023-08-08T15:26:44;20.40;1.00
14517;DHT22;7344;50.864;4.362;2023-08-08T15:29:10;20.30;1.00
14517;DHT22;7344;50.864;4.362;2023-08-08T15:31:36;20.10;1.00
14517;DHT22;7344;50.864;4.362;2023-08-08T15:34:02;19.90;1.00
14517;DHT22;7344;50.864;4.362;2023-08-08T15:36:28;19.70;1.00
14517;DHT22;7344;50.864;4.362;2023-08-08T15:38:53;19.80;4.30
14517;DHT22;7344;50.864;4.362;2023-08-08T15:41:19;19.80;1.30
14517;DHT22;7344;50.864;4.362;2023-08-08T15:43:45;19.60;4.70
14517;DHT22;7344;50.864;4.362;2023-08-08T15:46:11;19.60;15.30
14517;DHT22;7344;50.864;4.362;2023-08-08T15:48:37;19.70;12.20
14517;DHT22;7344;50.864;4.362;2023-08-08T15:51:02;19.70;10.80
14517;DHT22;7344;50.864;4.362;2023-08-08T15:53:28;19.70;6.90
14517;DHT22;7344;50.864;4.362;2023-08-08T15:55:54;19.80;8.80
14517;DHT22;7344;50.864;4.362;2023-08-08T15:58:20;20.00;5.60